sensor_id;sensor_type;location;lat;lon;timestamp;P1;durP1;ratioP1;P2;durP2;ratioP2
23270;SDS011;11804;51.118;17.058;2024-03-08T00:01:59;22.60;;;8.57;;
23270;SDS011;11804;51.118;17.058;2024-03-08T00:04:26;19.37;;;9.33;;
23270;SDS011;11804;51.118;17.058;2024-03-08T00:06:53;19.87;;;8.20;;
23270;SDS011;11804;51.118;17.058;2024-03-08T00:09:20;19.43;;;8.13;;
23270;SDS011;11804;51.118;17.058;2024-03-08T00:11:48;14.83;;;7.80;;
23270;SDS011;11804;51.118;17.058;2024-03-08T00:14:16;16.17;;;6.83;;
23270;SDS011;11804;51.118;17.058;2024-03-08T00:16:43;17.33;;;8.00;;
23270;SDS011;11804;51.118;17.058;2024-03-08T00:19:11;20.10;;;9.13;;
23270;SDS011;11804;51.118;17.058;2024-03-08T00:21:38;19.97;;;9.83;;
23270;SDS011;11804;51.118;17.058;2024-03-08T00:24:05;18.80;;;7.77;;
23270;SDS011;11804;51.118;17.058;2024-03-08T00:26:32;18.57;;;9.03;;
23270;SDS011;11804;51.118;17.058;2024-03-08T00:29:00;19.70;;;9.03;;
23270;SDS011;11804;51.118;17.058;2024-03-08T00:31:27;14.73;;;8.10;;
23270;SDS011;11804;51.118;17.058;2024-03-08T00:33:56;22.67;;;8.43;;
23270;SDS011;11804;51.118;17.058;2024-03-08T00:36:24;16.40;;;8.80;;
23270;SDS011;11804;51.118;17.058;2024-03-08T00:38:51;25.97;;;9.63;;
23270;SDS011;11804;51.118;17.058;2024-03-08T00:41:19;18.87;;;9.10;;
23270;SDS011;11804;51.118;17.058;2024-03-08T00:43:46;23.37;;;9.17;;
23270;SDS011;11804;51.118;17.058;2024-03-08T00:46:14;14.60;;;7.40;;
23270;SDS011;11804;51.118;17.058;2024-03-08T00:48:41;20.40;;;9.07;;
23270;SDS011;11804;51.118;17.058;2024-03-08T00:51:09;18.47;;;10.00;;
23270;SDS011;11804;51.118;17.058;2024-03-08T00:53:37;21.77;;;8.70;;
23270;SDS011;11804;51.118;17.058;2024-03-08T00:56:04;23.27;;;11.33;;
23270;SDS011;11804;51.118;17.058;2024-03-08T00:58:31;16.67;;;9.93;;
23270;SDS011;11804;51.118;17.058;2024-03-08T01:00:59;22.67;;;9.40;;
23270;SDS011;11804;51.118;17.058;2024-03-08T01:03:27;22.93;;;11.07;;
23270;SDS011;11804;51.118;17.058;2024-03-08T01:05:54;24.70;;;9.50;;
23270;SDS011;11804;51.118;17.058;2024-03-08T01:08:21;20.63;;;11.97;;
23270;SDS011;11804;51.118;17.058;2024-03-08T01:10:49;21.67;;;10.87;;
23270;SDS011;11804;51.118;17.058;2024-03-08T01:13:17;25.03;;;10.07;;
23270;SDS011;11804;51.118;17.058;2024-03-08T01:15:45;17.80;;;9.07;;
23270;SDS011;11804;51.118;17.058;2024-03-08T01:18:12;24.33;;;11.30;;
23270;SDS011;11804;51.118;17.058;2024-03-08T01:20:39;27.17;;;11.47;;
23270;SDS011;11804;51.118;17.058;2024-03-08T01:23:07;25.47;;;11.33;;
23270;SDS011;11804;51.118;17.058;2024-03-08T01:25:34;21.80;;;11.40;;
23270;SDS011;11804;51.118;17.058;2024-03-08T01:28:02;22.57;;;10.67;;
23270;SDS011;11804;51.118;17.058;2024-03-08T01:30:29;23.77;;;9.70;;
23270;SDS011;11804;51.118;17.058;2024-03-08T01:32:58;21.00;;;10.63;;
23270;SDS011;11804;51.118;17.058;2024-03-08T01:35:25;17.47;;;8.70;;
23270;SDS011;11804;51.118;17.058;2024-03-08T01:37:53;21.30;;;9.33;;
23270;SDS011;11804;51.118;17.058;2024-03-08T01:40:20;19.13;;;7.50;;
23270;SDS011;11804;51.118;17.058;2024-03-08T01:42:48;20.03;;;8.60;;
23270;SDS011;11804;51.118;17.058;2024-03-08T01:45:16;24.40;;;8.53;;
23270;SDS011;11804;51.118;17.058;2024-03-08T01:47:43;15.13;;;7.40;;
23270;SDS011;11804;51.118;17.058;2024-03-08T01:50:10;14.47;;;6.73;;
23270;SDS011;11804;51.118;17.058;2024-03-08T01:52:38;11.20;;;6.07;;
23270;SDS011;11804;51.118;17.058;2024-03-08T01:55:05;22.30;;;7.80;;
23270;SDS011;11804;51.118;17.058;2024-03-08T01:57:35;12.10;;;6.13;;
23270;SDS011;11804;51.118;17.058;2024-03-08T02:00:05;15.20;;;6.63;;
23270;SDS011;11804;51.118;17.058;2024-03-08T02:02:34;19.67;;;7.70;;
23270;SDS011;11804;51.118;17.058;2024-03-08T02:05:03;15.23;;;6.97;;
23270;SDS011;11804;51.118;17.058;2024-03-08T02:07:34;14.20;;;6.17;;
23270;SDS011;11804;51.118;17.058;2024-03-08T02:10:02;14.77;;;7.37;;
23270;SDS011;11804;51.118;17.058;2024-03-08T02:12:29;19.80;;;8.43;;
23270;SDS011;11804;51.118;17.058;2024-03-08T02:14:56;16.00;;;8.03;;
23270;SDS011;11804;51.118;17.058;2024-03-08T02:17:23;20.53;;;9.33;;
23270;SDS011;11804;51.118;17.058;2024-03-08T02:19:51;24.50;;;11.07;;
23270;SDS011;11804;51.118;17.058;2024-03-08T02:22:18;19.67;;;9.03;;
23270;SDS011;11804;51.118;17.058;2024-03-08T02:24:46;18.30;;;8.73;;
23270;SDS011;11804;51.118;17.058;2024-03-08T02:27:14;21.77;;;8.93;;
23270;SDS011;11804;51.118;17.058;2024-03-08T02:29:43;20.50;;;8.73;;
23270;SDS011;11804;51.118;17.058;2024-03-08T02:32:11;22.37;;;9.83;;
23270;SDS011;11804;51.118;17.058;2024-03-08T02:34:39;17.23;;;7.27;;
23270;SDS011;11804;51.118;17.058;2024-03-08T02:37:06;18.27;;;8.23;;
23270;SDS011;11804;51.118;17.058;2024-03-08T02:39:35;21.53;;;9.90;;
23270;SDS011;11804;51.118;17.058;2024-03-08T02:42:02;13.10;;;6.47;;
23270;SDS011;11804;51.118;17.058;2024-03-08T02:44:29;14.70;;;6.47;;
23270;SDS011;11804;51.118;17.058;2024-03-08T02:46:56;20.63;;;8.03;;
23270;SDS011;11804;51.118;17.058;2024-03-08T02:49:24;17.70;;;6.83;;
23270;SDS011;11804;51.118;17.058;2024-03-08T02:51:51;14.60;;;6.97;;
23270;SDS011;11804;51.118;17.058;2024-03-08T02:54:18;13.40;;;5.83;;
23270;SDS011;11804;51.118;17.058;2024-03-08T02:56:47;12.27;;;6.03;;
23270;SDS011;11804;51.118;17.058;2024-03-08T02:59:16;16.87;;;7.10;;
23270;SDS011;11804;51.118;17.058;2024-03-08T03:01:43;12.53;;;6.70;;
23270;SDS011;11804;51.118;17.058;2024-03-08T03:04:11;13.47;;;7.60;;
23270;SDS011;11804;51.118;17.058;2024-03-08T03:06:38;17.30;;;7.20;;
23270;SDS011;11804;51.118;17.058;2024-03-08T03:09:05;15.97;;;7.97;;
23270;SDS011;11804;51.118;17.058;2024-03-08T03:11:33;20.47;;;9.80;;
23270;SDS011;11804;51.118;17.058;2024-03-08T03:14:00;17.80;;;10.00;;
23270;SDS011;11804;51.118;17.058;2024-03-08T03:16:27;18.90;;;8.97;;
23270;SDS011;11804;51.118;17.058;2024-03-08T03:18:55;19.53;;;8.23;;
23270;SDS011;11804;51.118;17.058;2024-03-08T03:21:23;17.83;;;8.20;;
23270;SDS011;11804;51.118;17.058;2024-03-08T03:23:50;20.47;;;8.10;;
23270;SDS011;11804;51.118;17.058;2024-03-08T03:26:19;17.73;;;10.23;;
23270;SDS011;11804;51.118;17.058;2024-03-08T03:28:46;24.77;;;11.37;;
23270;SDS011;11804;51.118;17.058;2024-03-08T03:31:14;18.83;;;9.13;;
23270;SDS011;11804;51.118;17.058;2024-03-08T03:33:41;16.30;;;8.83;;
23270;SDS011;11804;51.118;17.058;2024-03-08T03:36:09;20.93;;;8.80;;
23270;SDS011;11804;51.118;17.058;2024-03-08T03:38:36;26.23;;;8.50;;
23270;SDS011;11804;51.118;17.058;2024-03-08T03:41:03;21.93;;;9.13;;
23270;SDS011;11804;51.118;17.058;2024-03-08T03:43:32;19.73;;;10.10;;
23270;SDS011;11804;51.118;17.058;2024-03-08T03:46:00;23.73;;;9.80;;
23270;SDS011;11804;51.118;17.058;2024-03-08T03:48:27;30.30;;;10.57;;
23270;SDS011;11804;51.118;17.058;2024-03-08T03:50:54;16.10;;;7.97;;
23270;SDS011;11804;51.118;17.058;2024-03-08T03:53:22;19.83;;;10.53;;
23270;SDS011;11804;51.118;17.058;2024-03-08T03:55:49;19.83;;;8.77;;
23270;SDS011;11804;51.118;17.058;2024-03-08T03:58:16;26.37;;;9.17;;
23270;SDS011;11804;51.118;17.058;2024-03-08T04:00:45;22.97;;;11.07;;
23270;SDS011;11804;51.118;17.058;2024-03-08T04:03:12;21.43;;;10.10;;
23270;SDS011;11804;51.118;17.058;2024-03-08T04:05:40;20.77;;;9.97;;
23270;SDS011;11804;51.118;17.058;2024-03-08T04:08:07;16.97;;;7.40;;
23270;SDS011;11804;51.118;17.058;2024-03-08T04:10:34;19.67;;;9.63;;
23270;SDS011;11804;51.118;17.058;2024-03-08T04:13:02;24.93;;;10.90;;
23270;SDS011;11804;51.118;17.058;2024-03-08T04:15:30;19.93;;;9.20;;
23270;SDS011;11804;51.118;17.058;2024-03-08T04:17:57;17.53;;;9.60;;
23270;SDS011;11804;51.118;17.058;2024-03-08T04:20:26;21.00;;;9.90;;
23270;SDS011;11804;51.118;17.058;2024-03-08T04:22:53;27.27;;;9.80;;
23270;SDS011;11804;51.118;17.058;2024-03-08T04:25:21;19.00;;;7.63;;
23270;SDS011;11804;51.118;17.058;2024-03-08T04:27:48;14.63;;;7.93;;
23270;SDS011;11804;51.118;17.058;2024-03-08T04:30:15;13.80;;;7.93;;
23270;SDS011;11804;51.118;17.058;2024-03-08T04:32:43;11.60;;;5.83;;
23270;SDS011;11804;51.118;17.058;2024-03-08T04:35:10;13.93;;;7.13;;
23270;SDS011;11804;51.118;17.058;2024-03-08T04:37:38;15.43;;;6.37;;
23270;SDS011;11804;51.118;17.058;2024-03-08T04:40:06;14.73;;;6.30;;
23270;SDS011;11804;51.118;17.058;2024-03-08T04:42:34;17.97;;;7.67;;
23270;SDS011;11804;51.118;17.058;2024-03-08T04:45:02;15.53;;;6.57;;
23270;SDS011;11804;51.118;17.058;2024-03-08T04:47:30;17.97;;;7.23;;
23270;SDS011;11804;51.118;17.058;2024-03-08T04:49:57;19.13;;;7.20;;
23270;SDS011;11804;51.118;17.058;2024-03-08T04:52:25;13.37;;;6.37;;
23270;SDS011;11804;51.118;17.058;2024-03-08T04:54:54;12.17;;;6.10;;
23270;SDS011;11804;51.118;17.058;2024-03-08T04:57:21;15.23;;;6.83;;
23270;SDS011;11804;51.118;17.058;2024-03-08T04:59:49;16.17;;;7.20;;
23270;SDS011;11804;51.118;17.058;2024-03-08T05:02:16;16.90;;;6.40;;
23270;SDS011;11804;51.118;17.058;2024-03-08T05:04:44;14.67;;;7.17;;
23270;SDS011;11804;51.118;17.058;2024-03-08T05:07:11;17.57;;;7.73;;
23270;SDS011;11804;51.118;17.058;2024-03-08T05:09:38;18.63;;;7.53;;
23270;SDS011;11804;51.118;17.058;2024-03-08T05:12:07;12.50;;;6.43;;
23270;SDS011;11804;51.118;17.058;2024-03-08T05:14:34;12.20;;;4.50;;
23270;SDS011;11804;51.118;17.058;2024-03-08T05:17:01;11.37;;;5.50;;
23270;SDS011;11804;51.118;17.058;2024-03-08T05:19:29;25.17;;;7.17;;
23270;SDS011;11804;51.118;17.058;2024-03-08T05:22:00;16.17;;;5.97;;
23270;SDS011;11804;51.118;17.058;2024-03-08T05:24:27;19.63;;;7.87;;
23270;SDS011;11804;51.118;17.058;2024-03-08T05:26:56;13.13;;;5.67;;
23270;SDS011;11804;51.118;17.058;2024-03-08T05:29:23;13.50;;;5.73;;
23270;SDS011;11804;51.118;17.058;2024-03-08T05:31:51;17.83;;;5.67;;
23270;SDS011;11804;51.118;17.058;2024-03-08T05:34:23;13.90;;;6.17;;
23270;SDS011;11804;51.118;17.058;2024-03-08T05:36:51;14.03;;;7.27;;
23270;SDS011;11804;51.118;17.058;2024-03-08T05:39:20;11.03;;;5.33;;
23270;SDS011;11804;51.118;17.058;2024-03-08T05:41:47;11.93;;;6.63;;
23270;SDS011;11804;51.118;17.058;2024-03-08T05:44:15;21.30;;;6.27;;
23270;SDS011;11804;51.118;17.058;2024-03-08T05:46:45;22.43;;;6.53;;
23270;SDS011;11804;51.118;17.058;2024-03-08T05:49:15;11.27;;;5.33;;
23270;SDS011;11804;51.118;17.058;2024-03-08T05:51:42;14.57;;;6.00;;
23270;SDS011;11804;51.118;17.058;2024-03-08T05:54:10;14.80;;;6.27;;
23270;SDS011;11804;51.118;17.058;2024-03-08T05:56:38;12.90;;;6.20;;
23270;SDS011;11804;51.118;17.058;2024-03-08T05:59:07;16.97;;;7.63;;
23270;SDS011;11804;51.118;17.058;2024-03-08T06:01:35;17.10;;;7.53;;
23270;SDS011;11804;51.118;17.058;2024-03-08T06:04:03;14.10;;;6.27;;
23270;SDS011;11804;51.118;17.058;2024-03-08T06:06:30;17.87;;;7.90;;
23270;SDS011;11804;51.118;17.058;2024-03-08T06:08:58;26.73;;;9.90;;
23270;SDS011;11804;51.118;17.058;2024-03-08T06:11:25;18.47;;;7.63;;
23270;SDS011;11804;51.118;17.058;2024-03-08T06:13:59;19.63;;;8.03;;
23270;SDS011;11804;51.118;17.058;2024-03-08T06:16:26;17.47;;;7.87;;
23270;SDS011;11804;51.118;17.058;2024-03-08T06:18:56;20.33;;;8.20;;
23270;SDS011;11804;51.118;17.058;2024-03-08T06:21:24;14.63;;;7.37;;
23270;SDS011;11804;51.118;17.058;2024-03-08T06:23:54;21.57;;;7.53;;
23270;SDS011;11804;51.118;17.058;2024-03-08T06:26:24;22.27;;;7.67;;
23270;SDS011;11804;51.118;17.058;2024-03-08T06:28:51;19.13;;;8.33;;
23270;SDS011;11804;51.118;17.058;2024-03-08T06:31:18;18.27;;;8.37;;
23270;SDS011;11804;51.118;17.058;2024-03-08T06:33:46;13.37;;;6.10;;
23270;SDS011;11804;51.118;17.058;2024-03-08T06:36:18;15.27;;;6.80;;
23270;SDS011;11804;51.118;17.058;2024-03-08T06:38:52;19.43;;;8.43;;
23270;SDS011;11804;51.118;17.058;2024-03-08T06:41:15;17.43;;;7.63;;
23270;SDS011;11804;51.118;17.058;2024-03-08T06:43:43;14.10;;;7.83;;
23270;SDS011;11804;51.118;17.058;2024-03-08T06:46:11;11.53;;;7.20;;
23270;SDS011;11804;51.118;17.058;2024-03-08T06:48:39;10.00;;;5.30;;
23270;SDS011;11804;51.118;17.058;2024-03-08T06:51:06;11.10;;;5.60;;
23270;SDS011;11804;51.118;17.058;2024-03-08T06:53:34;19.83;;;7.97;;
23270;SDS011;11804;51.118;17.058;2024-03-08T06:56:02;18.93;;;9.00;;
23270;SDS011;11804;51.118;17.058;2024-03-08T06:58:29;12.10;;;6.50;;
23270;SDS011;11804;51.118;17.058;2024-03-08T07:00:56;15.60;;;7.07;;
23270;SDS011;11804;51.118;17.058;2024-03-08T07:03:25;19.67;;;8.00;;
23270;SDS011;11804;51.118;17.058;2024-03-08T07:05:53;19.37;;;8.70;;
23270;SDS011;11804;51.118;17.058;2024-03-08T07:08:21;15.30;;;6.07;;
23270;SDS011;11804;51.118;17.058;2024-03-08T07:10:49;17.50;;;9.10;;
23270;SDS011;11804;51.118;17.058;2024-03-08T07:13:16;19.77;;;7.37;;
23270;SDS011;11804;51.118;17.058;2024-03-08T07:15:44;11.60;;;6.23;;
23270;SDS011;11804;51.118;17.058;2024-03-08T07:18:12;20.27;;;8.13;;
23270;SDS011;11804;51.118;17.058;2024-03-08T07:20:41;23.33;;;10.40;;
23270;SDS011;11804;51.118;17.058;2024-03-08T07:23:09;18.80;;;7.77;;
23270;SDS011;11804;51.118;17.058;2024-03-08T07:25:37;26.20;;;8.97;;
23270;SDS011;11804;51.118;17.058;2024-03-08T07:28:05;18.00;;;9.00;;
23270;SDS011;11804;51.118;17.058;2024-03-08T07:30:33;22.57;;;9.13;;
23270;SDS011;11804;51.118;17.058;2024-03-08T07:33:11;19.10;;;8.67;;
23270;SDS011;11804;51.118;17.058;2024-03-08T07:35:39;20.43;;;8.23;;
23270;SDS011;11804;51.118;17.058;2024-03-08T07:38:08;19.90;;;8.83;;
23270;SDS011;11804;51.118;17.058;2024-03-08T07:40:36;15.83;;;8.13;;
23270;SDS011;11804;51.118;17.058;2024-03-08T07:43:05;26.73;;;10.43;;
23270;SDS011;11804;51.118;17.058;2024-03-08T07:45:33;13.00;;;6.57;;
23270;SDS011;11804;51.118;17.058;2024-03-08T07:48:02;30.97;;;10.87;;
23270;SDS011;11804;51.118;17.058;2024-03-08T07:50:29;30.17;;;11.30;;
23270;SDS011;11804;51.118;17.058;2024-03-08T07:52:57;17.57;;;7.47;;
23270;SDS011;11804;51.118;17.058;2024-03-08T07:55:24;20.03;;;9.37;;
23270;SDS011;11804;51.118;17.058;2024-03-08T07:57:53;25.30;;;10.50;;
23270;SDS011;11804;51.118;17.058;2024-03-08T08:00:20;21.23;;;9.27;;
23270;SDS011;11804;51.118;17.058;2024-03-08T08:02:47;23.60;;;10.37;;
23270;SDS011;11804;51.118;17.058;2024-03-08T08:05:15;28.03;;;10.20;;
23270;SDS011;11804;51.118;17.058;2024-03-08T08:07:44;23.47;;;10.77;;
23270;SDS011;11804;51.118;17.058;2024-03-08T08:10:15;25.07;;;9.67;;
23270;SDS011;11804;51.118;17.058;2024-03-08T08:12:45;20.30;;;9.10;;
23270;SDS011;11804;51.118;17.058;2024-03-08T08:15:13;25.77;;;10.30;;
23270;SDS011;11804;51.118;17.058;2024-03-08T08:17:46;22.37;;;9.43;;
23270;SDS011;11804;51.118;17.058;2024-03-08T08:20:10;25.00;;;10.57;;
23270;SDS011;11804;51.118;17.058;2024-03-08T08:22:39;25.53;;;9.10;;
23270;SDS011;11804;51.118;17.058;2024-03-08T08:25:07;22.17;;;10.00;;
23270;SDS011;11804;51.118;17.058;2024-03-08T08:27:34;23.40;;;9.93;;
23270;SDS011;11804;51.118;17.058;2024-03-08T08:30:04;24.10;;;10.00;;
23270;SDS011;11804;51.118;17.058;2024-03-08T08:32:38;21.50;;;9.20;;
23270;SDS011;11804;51.118;17.058;2024-03-08T08:35:07;23.53;;;9.03;;
23270;SDS011;11804;51.118;17.058;2024-03-08T08:37:32;25.57;;;11.33;;
23270;SDS011;11804;51.118;17.058;2024-03-08T08:40:01;26.60;;;11.73;;
23270;SDS011;11804;51.118;17.058;2024-03-08T08:42:30;24.97;;;9.37;;
23270;SDS011;11804;51.118;17.058;2024-03-08T08:44:57;23.47;;;9.87;;
23270;SDS011;11804;51.118;17.058;2024-03-08T08:47:24;19.40;;;8.23;;
23270;SDS011;11804;51.118;17.058;2024-03-08T08:49:51;22.23;;;9.30;;
23270;SDS011;11804;51.118;17.058;2024-03-08T08:52:20;25.23;;;10.70;;
23270;SDS011;11804;51.118;17.058;2024-03-08T08:54:47;26.00;;;9.30;;
23270;SDS011;11804;51.118;17.058;2024-03-08T08:57:16;27.47;;;11.33;;
23270;SDS011;11804;51.118;17.058;2024-03-08T08:59:43;20.93;;;8.53;;
23270;SDS011;11804;51.118;17.058;2024-03-08T09:02:12;19.87;;;9.07;;
23270;SDS011;11804;51.118;17.058;2024-03-08T09:04:39;24.17;;;9.60;;
23270;SDS011;11804;51.118;17.058;2024-03-08T09:07:06;21.43;;;9.30;;
23270;SDS011;11804;51.118;17.058;2024-03-08T09:09:33;25.60;;;11.53;;
23270;SDS011;11804;51.118;17.058;2024-03-08T09:12:01;28.77;;;10.30;;
23270;SDS011;11804;51.118;17.058;2024-03-08T09:14:28;23.07;;;9.83;;
23270;SDS011;11804;51.118;17.058;2024-03-08T09:16:56;25.93;;;10.30;;
23270;SDS011;11804;51.118;17.058;2024-03-08T09:19:23;25.90;;;11.37;;
23270;SDS011;11804;51.118;17.058;2024-03-08T09:21:52;24.03;;;11.33;;
23270;SDS011;11804;51.118;17.058;2024-03-08T09:24:19;21.60;;;8.93;;
23270;SDS011;11804;51.118;17.058;2024-03-08T09:26:47;30.47;;;9.50;;
23270;SDS011;11804;51.118;17.058;2024-03-08T09:29:14;24.87;;;10.50;;
23270;SDS011;11804;51.118;17.058;2024-03-08T09:31:42;25.60;;;10.90;;
23270;SDS011;11804;51.118;17.058;2024-03-08T09:34:11;21.20;;;8.70;;
23270;SDS011;11804;51.118;17.058;2024-03-08T09:36:38;18.13;;;8.33;;
23270;SDS011;11804;51.118;17.058;2024-03-08T09:39:07;26.63;;;10.67;;
23270;SDS011;11804;51.118;17.058;2024-03-08T09:41:35;18.77;;;7.60;;
23270;SDS011;11804;51.118;17.058;2024-03-08T09:44:03;15.63;;;7.50;;
23270;SDS011;11804;51.118;17.058;2024-03-08T09:46:30;22.93;;;9.53;;
23270;SDS011;11804;51.118;17.058;2024-03-08T09:48:58;21.73;;;9.60;;
23270;SDS011;11804;51.118;17.058;2024-03-08T09:51:31;19.60;;;8.77;;
23270;SDS011;11804;51.118;17.058;2024-03-08T09:53:56;18.53;;;8.23;;
23270;SDS011;11804;51.118;17.058;2024-03-08T09:56:26;23.77;;;10.23;;
23270;SDS011;11804;51.118;17.058;2024-03-08T09:58:54;21.23;;;7.80;;
23270;SDS011;11804;51.118;17.058;2024-03-08T10:01:40;14.93;;;7.40;;
23270;SDS011;11804;51.118;17.058;2024-03-08T10:04:08;17.23;;;7.50;;
23270;SDS011;11804;51.118;17.058;2024-03-08T10:06:36;14.83;;;7.50;;
23270;SDS011;11804;51.118;17.058;2024-03-08T10:09:03;19.17;;;8.70;;
23270;SDS011;11804;51.118;17.058;2024-03-08T10:11:32;21.20;;;9.23;;
23270;SDS011;11804;51.118;17.058;2024-03-08T10:14:00;15.67;;;6.83;;
23270;SDS011;11804;51.118;17.058;2024-03-08T10:16:28;17.07;;;6.63;;
23270;SDS011;11804;51.118;17.058;2024-03-08T10:18:58;20.73;;;8.73;;
23270;SDS011;11804;51.118;17.058;2024-03-08T10:21:31;18.13;;;7.13;;
23270;SDS011;11804;51.118;17.058;2024-03-08T10:23:55;20.13;;;9.97;;
23270;SDS011;11804;51.118;17.058;2024-03-08T10:26:24;15.80;;;7.80;;
23270;SDS011;11804;51.118;17.058;2024-03-08T10:28:52;18.47;;;8.00;;
23270;SDS011;11804;51.118;17.058;2024-03-08T10:31:19;13.80;;;7.17;;
23270;SDS011;11804;51.118;17.058;2024-03-08T10:33:46;21.37;;;8.57;;
23270;SDS011;11804;51.118;17.058;2024-03-08T10:36:15;20.27;;;8.53;;
23270;SDS011;11804;51.118;17.058;2024-03-08T10:38:43;14.63;;;6.20;;
23270;SDS011;11804;51.118;17.058;2024-03-08T10:41:12;14.93;;;6.77;;
23270;SDS011;11804;51.118;17.058;2024-03-08T10:43:49;17.67;;;7.07;;
23270;SDS011;11804;51.118;17.058;2024-03-08T10:46:30;16.07;;;6.70;;
23270;SDS011;11804;51.118;17.058;2024-03-08T10:48:55;15.37;;;7.37;;
23270;SDS011;11804;51.118;17.058;2024-03-08T10:51:26;13.10;;;5.90;;
23270;SDS011;11804;51.118;17.058;2024-03-08T10:53:54;14.23;;;5.73;;
23270;SDS011;11804;51.118;17.058;2024-03-08T10:56:23;17.13;;;6.07;;
23270;SDS011;11804;51.118;17.058;2024-03-08T10:58:51;12.93;;;5.53;;
23270;SDS011;11804;51.118;17.058;2024-03-08T11:01:19;14.47;;;5.67;;
23270;SDS011;11804;51.118;17.058;2024-03-08T11:03:47;11.73;;;5.30;;
23270;SDS011;11804;51.118;17.058;2024-03-08T11:06:17;12.43;;;6.17;;
23270;SDS011;11804;51.118;17.058;2024-03-08T11:08:45;14.23;;;5.77;;
23270;SDS011;11804;51.118;17.058;2024-03-08T11:11:26;11.53;;;5.97;;
23270;SDS011;11804;51.118;17.058;2024-03-08T11:13:56;10.43;;;4.90;;
23270;SDS011;11804;51.118;17.058;2024-03-08T11:18:58;10.70;;;4.83;;
23270;SDS011;11804;51.118;17.058;2024-03-08T11:21:31;10.53;;;4.83;;
23270;SDS011;11804;51.118;17.058;2024-03-08T11:24:00;9.57;;;3.87;;
23270;SDS011;11804;51.118;17.058;2024-03-08T11:26:28;11.23;;;4.50;;
23270;SDS011;11804;51.118;17.058;2024-03-08T11:31:43;10.33;;;4.40;;
23270;SDS011;11804;51.118;17.058;2024-03-08T11:34:15;12.30;;;4.50;;
23270;SDS011;11804;51.118;17.058;2024-03-08T11:36:43;13.57;;;6.00;;
23270;SDS011;11804;51.118;17.058;2024-03-08T11:39:10;8.57;;;4.40;;
23270;SDS011;11804;51.118;17.058;2024-03-08T11:41:39;10.57;;;5.00;;
23270;SDS011;11804;51.118;17.058;2024-03-08T11:44:07;9.33;;;4.43;;
23270;SDS011;11804;51.118;17.058;2024-03-08T11:46:36;10.27;;;5.47;;
23270;SDS011;11804;51.118;17.058;2024-03-08T11:49:05;11.37;;;4.07;;
23270;SDS011;11804;51.118;17.058;2024-03-08T11:51:33;8.13;;;4.13;;
23270;SDS011;11804;51.118;17.058;2024-03-08T11:54:00;7.43;;;3.87;;
23270;SDS011;11804;51.118;17.058;2024-03-08T11:56:27;15.10;;;4.97;;
23270;SDS011;11804;51.118;17.058;2024-03-08T11:58:56;11.30;;;4.47;;
23270;SDS011;11804;51.118;17.058;2024-03-08T12:01:23;10.67;;;4.43;;
23270;SDS011;11804;51.118;17.058;2024-03-08T12:03:54;13.47;;;6.17;;
23270;SDS011;11804;51.118;17.058;2024-03-08T12:06:23;12.37;;;4.50;;
23270;SDS011;11804;51.118;17.058;2024-03-08T12:08:51;10.23;;;5.50;;
23270;SDS011;11804;51.118;17.058;2024-03-08T12:11:20;12.53;;;4.77;;
23270;SDS011;11804;51.118;17.058;2024-03-08T12:13:49;14.07;;;6.03;;
23270;SDS011;11804;51.118;17.058;2024-03-08T12:16:17;13.07;;;6.03;;
23270;SDS011;11804;51.118;17.058;2024-03-08T12:18:45;15.50;;;6.30;;
23270;SDS011;11804;51.118;17.058;2024-03-08T12:21:12;12.27;;;5.63;;
23270;SDS011;11804;51.118;17.058;2024-03-08T12:23:41;13.67;;;5.63;;
23270;SDS011;11804;51.118;17.058;2024-03-08T12:26:12;15.17;;;6.50;;
23270;SDS011;11804;51.118;17.058;2024-03-08T12:28:42;14.07;;;6.00;;
23270;SDS011;11804;51.118;17.058;2024-03-08T12:31:11;15.43;;;4.53;;
23270;SDS011;11804;51.118;17.058;2024-03-08T12:33:51;14.77;;;6.37;;
23270;SDS011;11804;51.118;17.058;2024-03-08T12:36:19;7.40;;;4.10;;
23270;SDS011;11804;51.118;17.058;2024-03-08T12:38:47;10.67;;;4.70;;
23270;SDS011;11804;51.118;17.058;2024-03-08T12:41:18;11.73;;;4.80;;
23270;SDS011;11804;51.118;17.058;2024-03-08T12:43:46;14.13;;;4.87;;
23270;SDS011;11804;51.118;17.058;2024-03-08T12:46:15;11.20;;;5.10;;
23270;SDS011;11804;51.118;17.058;2024-03-08T12:48:44;14.70;;;5.73;;
23270;SDS011;11804;51.118;17.058;2024-03-08T12:51:13;13.37;;;6.03;;
23270;SDS011;11804;51.118;17.058;2024-03-08T12:53:42;12.30;;;5.00;;
23270;SDS011;11804;51.118;17.058;2024-03-08T12:56:14;12.63;;;5.53;;
23270;SDS011;11804;51.118;17.058;2024-03-08T12:58:43;12.30;;;5.17;;
23270;SDS011;11804;51.118;17.058;2024-03-08T13:01:11;10.53;;;4.63;;
23270;SDS011;11804;51.118;17.058;2024-03-08T13:03:38;14.47;;;6.07;;
23270;SDS011;11804;51.118;17.058;2024-03-08T13:06:06;12.17;;;4.73;;
23270;SDS011;11804;51.118;17.058;2024-03-08T13:08:37;14.93;;;7.13;;
23270;SDS011;11804;51.118;17.058;2024-03-08T13:11:06;12.67;;;5.67;;
23270;SDS011;11804;51.118;17.058;2024-03-08T13:13:34;11.27;;;5.23;;
23270;SDS011;11804;51.118;17.058;2024-03-08T13:16:06;13.60;;;6.53;;
23270;SDS011;11804;51.118;17.058;2024-03-08T13:18:37;12.97;;;5.37;;
23270;SDS011;11804;51.118;17.058;2024-03-08T13:21:04;13.67;;;6.80;;
23270;SDS011;11804;51.118;17.058;2024-03-08T13:23:33;11.13;;;4.60;;
23270;SDS011;11804;51.118;17.058;2024-03-08T13:26:02;9.97;;;4.30;;
23270;SDS011;11804;51.118;17.058;2024-03-08T13:28:31;10.33;;;5.10;;
23270;SDS011;11804;51.118;17.058;2024-03-08T13:31:00;11.37;;;4.63;;
23270;SDS011;11804;51.118;17.058;2024-03-08T13:33:27;11.83;;;5.77;;
23270;SDS011;11804;51.118;17.058;2024-03-08T13:35:55;14.70;;;4.80;;
23270;SDS011;11804;51.118;17.058;2024-03-08T13:38:23;12.73;;;5.50;;
23270;SDS011;11804;51.118;17.058;2024-03-08T13:40:50;14.47;;;5.43;;
23270;SDS011;11804;51.118;17.058;2024-03-08T13:43:18;9.67;;;4.53;;
23270;SDS011;11804;51.118;17.058;2024-03-08T13:45:45;10.63;;;5.27;;
23270;SDS011;11804;51.118;17.058;2024-03-08T13:48:13;9.93;;;4.13;;
23270;SDS011;11804;51.118;17.058;2024-03-08T13:50:40;15.53;;;5.50;;
23270;SDS011;11804;51.118;17.058;2024-03-08T13:53:07;18.93;;;5.90;;
23270;SDS011;11804;51.118;17.058;2024-03-08T13:55:36;10.83;;;5.13;;
23270;SDS011;11804;51.118;17.058;2024-03-08T13:58:03;14.33;;;4.97;;
23270;SDS011;11804;51.118;17.058;2024-03-08T14:00:32;11.80;;;4.50;;
23270;SDS011;11804;51.118;17.058;2024-03-08T14:03:00;9.10;;;4.33;;
23270;SDS011;11804;51.118;17.058;2024-03-08T14:05:27;10.70;;;4.30;;
23270;SDS011;11804;51.118;17.058;2024-03-08T14:07:55;13.87;;;5.23;;
23270;SDS011;11804;51.118;17.058;2024-03-08T14:10:25;13.00;;;5.07;;
23270;SDS011;11804;51.118;17.058;2024-03-08T14:12:53;11.17;;;4.60;;
23270;SDS011;11804;51.118;17.058;2024-03-08T14:15:21;10.97;;;4.03;;
23270;SDS011;11804;51.118;17.058;2024-03-08T14:17:54;9.70;;;4.53;;
23270;SDS011;11804;51.118;17.058;2024-03-08T14:20:22;11.63;;;5.63;;
23270;SDS011;11804;51.118;17.058;2024-03-08T14:22:52;10.10;;;4.83;;
23270;SDS011;11804;51.118;17.058;2024-03-08T14:25:19;10.27;;;4.73;;
23270;SDS011;11804;51.118;17.058;2024-03-08T14:27:46;10.50;;;4.53;;
23270;SDS011;11804;51.118;17.058;2024-03-08T14:30:13;9.33;;;3.77;;
23270;SDS011;11804;51.118;17.058;2024-03-08T14:32:42;10.80;;;5.03;;